Time;durP1;ratioP1;P1;durP2;ratioP2;P2;SDS_P1;SDS_P2;PMS_P1;PMS_P2;Temp;Humidity;BMP_temperature;BMP_pressure;BME280_temperature;BME280_humidity;BME280_pressure;Samples;Min_cycle;Max_cycle;Signal;HPM_P1;HPM_P2
2023/01/09 00:01:21;;;;;;;1.00;1.00;;;;;;;;;;4818514;28;20067;-65
2023/01/09 00:03:47;;;;;;;2.75;1.33;;;;;;;;;;4721261;28;20246;-65
2023/01/09 00:06:13;;;;;;;1.05;0.95;;;;;;;;;;4726124;28;20223;-65
2023/01/09 00:08:39;;;;;;;4.07;0.90;;;;;;;;;;4793783;28;20884;-66
2023/01/09 00:11:06;;;;;;;2.40;1.00;;;;;;;;;;4702630;28;20904;-65
2023/01/09 00:13:32;;;;;;;1.40;1.08;;;;;;;;;;4713455;28;20226;-65
2023/01/09 00:15:58;;;;;;;2.55;0.93;;;;;;;;;;4704401;28;20063;-65
2023/01/09 00:18:24;;;;;;;1.98;1.13;;;;;;;;;;4717065;28;20047;-65
2023/01/09 00:20:50;;;;;;;2.35;1.40;;;;;;;;;;4754405;28;20908;-65
2023/01/09 00:23:16;;;;;;;4.15;1.77;;;;;;;;;;4701999;28;20848;-65
2023/01/09 00:25:42;;;;;;;2.35;1.50;;;;;;;;;;4772936;28;21010;-65
2023/01/09 00:28:09;;;;;;;1.58;1.48;;;;;;;;;;4769700;28;20044;-65
2023/01/09 00:30:35;;;;;;;2.00;1.60;;;;;;;;;;4759463;28;20137;-65
2023/01/09 00:33:01;;;;;;;5.35;1.83;;;;;;;;;;4783717;28;20109;-65
2023/01/09 00:35:28;;;;;;;4.03;1.67;;;;;;;;;;4797814;28;20066;-65
2023/01/09 00:37:54;;;;;;;4.00;2.13;;;;;;;;;;4828898;28;20032;-66
2023/01/09 00:40:20;;;;;;;2.53;1.83;;;;;;;;;;4759831;28;20109;-67
2023/01/09 00:42:52;;;;;;;7.38;1.85;;;;;;;;;;4742468;28;20065;-67
2023/01/09 00:45:27;;;;;;;2.88;1.65;;;;;;;;;;4783203;28;20881;-67
2023/01/09 00:47:53;;;;;;;3.53;2.13;;;;;;;;;;4728668;28;20048;-67
2023/01/09 00:50:21;;;;;;;4.68;2.15;;;;;;;;;;4754704;28;20048;-67
2023/01/09 00:52:48;;;;;;;3.78;2.20;;;;;;;;;;4806572;28;20043;-67
2023/01/09 00:55:14;;;;;;;7.93;2.15;;;;;;;;;;4829010;28;20053;-67
2023/01/09 00:57:40;;;;;;;5.28;2.00;;;;;;;;;;4867798;28;20845;-67
2023/01/09 01:00:07;;;;;;;6.45;3.22;;;;;;;;;;4827075;28;20437;-67
2023/01/09 01:02:33;;;;;;;5.20;2.25;;;;;;;;;;4845447;28;20040;-67
2023/01/09 01:07:44;;;;;;;4.95;2.33;;;;;;;;;;4831331;28;20044;-67
2023/01/09 01:10:19;;;;;;;2.88;1.80;;;;;;;;;;4795224;28;20137;-67
2023/01/09 01:12:45;;;;;;;6.28;2.50;;;;;;;;;;4762355;28;20044;-67
2023/01/09 01:15:12;;;;;;;3.25;2.15;;;;;;;;;;4753263;28;20033;-67
2023/01/09 01:17:39;;;;;;;4.20;1.98;;;;;;;;;;4701150;28;20040;-67
2023/01/09 01:20:06;;;;;;;4.35;2.17;;;;;;;;;;4707625;28;20045;-67
2023/01/09 01:22:32;;;;;;;3.83;2.10;;;;;;;;;;4731079;28;20044;-67
2023/01/09 01:24:58;;;;;;;3.25;2.28;;;;;;;;;;4750618;28;20040;-66
2023/01/09 01:27:24;;;;;;;6.22;2.10;;;;;;;;;;4796249;28;20885;-67
2023/01/09 01:29:50;;;;;;;4.63;1.73;;;;;;;;;;4832148;28;20036;-67
2023/01/09 01:32:16;;;;;;;2.63;1.70;;;;;;;;;;4713713;28;20089;-67
2023/01/09 01:34:42;;;;;;;4.30;1.90;;;;;;;;;;4786034;28;20085;-67
2023/01/09 01:37:08;;;;;;;3.80;2.40;;;;;;;;;;4812114;28;20040;-67
2023/01/09 01:39:34;;;;;;;4.70;2.17;;;;;;;;;;4863728;28;20686;-67
2023/01/09 01:42:02;;;;;;;3.35;2.00;;;;;;;;;;4855153;28;20044;-67
2023/01/09 01:44:47;;;;;;;5.22;1.90;;;;;;;;;;4858329;28;20115;-67
2023/01/09 01:47:14;;;;;;;4.00;2.33;;;;;;;;;;4852649;28;20051;-67
2023/01/09 01:49:40;;;;;;;3.40;2.17;;;;;;;;;;4822602;28;21012;-67
2023/01/09 01:52:06;;;;;;;4.30;2.15;;;;;;;;;;4866133;28;20051;-67
2023/01/09 01:54:33;;;;;;;7.40;2.95;;;;;;;;;;4827883;28;20225;-67
2023/01/09 01:57:02;;;;;;;6.03;2.25;;;;;;;;;;4870477;28;20036;-67
2023/01/09 01:59:31;;;;;;;4.55;1.90;;;;;;;;;;4849191;28;20628;-67
2023/01/09 02:01:58;;;;;;;3.03;1.98;;;;;;;;;;4855119;28;20074;-67
2023/01/09 02:04:25;;;;;;;5.85;2.08;;;;;;;;;;4844132;28;20091;-67
2023/01/09 02:06:52;;;;;;;4.57;2.20;;;;;;;;;;4854908;28;20106;-67
2023/01/09 02:09:21;;;;;;;4.43;2.53;;;;;;;;;;4854566;28;20064;-67
2023/01/09 02:11:51;;;;;;;2.97;2.25;;;;;;;;;;4842519;28;20101;-67
2023/01/09 02:14:18;;;;;;;4.40;2.08;;;;;;;;;;4825493;28;20048;-67
2023/01/09 02:16:46;;;;;;;4.88;2.30;;;;;;;;;;4841521;28;20090;-67
2023/01/09 02:19:31;;;;;;;4.53;2.30;;;;;;;;;;4833944;28;20119;-67
2023/01/09 02:22:12;;;;;;;6.32;2.22;;;;;;;;;;4817527;28;20707;-68
2023/01/09 02:24:56;;;;;;;3.75;2.22;;;;;;;;;;4848679;28;20943;-67
2023/01/09 02:27:27;;;;;;;6.32;2.20;;;;;;;;;;4856880;28;20319;-67
2023/01/09 02:30:12;;;;;;;4.43;2.25;;;;;;;;;;4861866;28;20040;-67
2023/01/09 02:32:57;;;;;;;5.32;2.20;;;;;;;;;;4862029;28;20056;-67
2023/01/09 02:35:42;;;;;;;7.53;2.58;;;;;;;;;;4844229;28;20056;-68
2023/01/09 02:38:22;;;;;;;7.25;2.40;;;;;;;;;;4865263;28;20134;-67
2023/01/09 02:40:59;;;;;;;7.40;3.13;;;;;;;;;;4834321;28;20068;-67
2023/01/09 02:43:25;;;;;;;5.93;2.08;;;;;;;;;;4839306;28;20113;-67
2023/01/09 02:45:51;;;;;;;8.95;2.63;;;;;;;;;;4833462;28;20663;-67
2023/01/09 02:48:18;;;;;;;8.18;2.28;;;;;;;;;;4794726;28;20924;-63
2023/01/09 02:51:02;;;;;;;4.28;2.20;;;;;;;;;;4821674;28;20545;-63
2023/01/09 02:53:31;;;;;;;5.50;2.15;;;;;;;;;;4846120;28;20204;-62
2023/01/09 02:56:20;;;;;;;5.90;2.13;;;;;;;;;;4860359;28;20123;-62
2023/01/09 02:58:56;;;;;;;6.25;3.22;;;;;;;;;;4832622;28;20244;-62
2023/01/09 03:01:22;;;;;;;;;;;;;;;;;;4836711;28;20912;-62
2023/01/09 03:04:02;;;;;;;5.47;2.22;;;;;;;;;;4840809;28;19916;-62
2023/01/09 03:06:50;;;;;;;7.32;2.72;;;;;;;;;;4847329;28;20052;-62
2023/01/09 03:09:21;;;;;;;4.30;2.90;;;;;;;;;;4848915;28;20040;-62
2023/01/09 03:11:49;;;;;;;12.43;2.63;;;;;;;;;;4855492;28;20080;-62
2023/01/09 03:14:17;;;;;;;5.72;2.78;;;;;;;;;;4854183;28;20743;-63
2023/01/09 03:16:46;;;;;;;7.25;2.78;;;;;;;;;;4850005;28;20045;-62
2023/01/09 03:19:15;;;;;;;7.00;3.15;;;;;;;;;;4829571;28;20044;-62
2023/01/09 03:21:42;;;;;;;4.45;3.00;;;;;;;;;;4801812;28;20056;-62
2023/01/09 03:24:08;;;;;;;12.50;2.85;;;;;;;;;;4719187;28;20048;-62
2023/01/09 03:26:34;;;;;;;5.53;3.17;;;;;;;;;;4787534;28;20169;-62
2023/01/09 03:29:00;;;;;;;9.30;3.38;;;;;;;;;;4828951;28;20302;-63
2023/01/09 03:31:26;;;;;;;6.70;3.38;;;;;;;;;;4856036;28;20113;-62
2023/01/09 03:33:52;;;;;;;6.22;3.97;;;;;;;;;;4841765;28;20052;-62
2023/01/09 03:36:19;;;;;;;8.27;3.72;;;;;;;;;;4856731;28;20147;-63
2023/01/09 03:38:45;;;;;;;7.80;3.60;;;;;;;;;;4838498;28;20041;-62
2023/01/09 03:41:11;;;;;;;8.50;3.53;;;;;;;;;;4857736;28;20109;-62
2023/01/09 03:43:37;;;;;;;4.40;3.10;;;;;;;;;;4831719;28;20041;-63
2023/01/09 03:46:04;;;;;;;9.20;3.05;;;;;;;;;;4736082;28;20045;-62
2023/01/09 03:48:30;;;;;;;7.43;3.47;;;;;;;;;;4775960;28;20067;-63
2023/01/09 03:50:56;;;;;;;8.25;3.65;;;;;;;;;;4782476;28;20048;-65
2023/01/09 03:53:23;;;;;;;8.75;3.55;;;;;;;;;;4787808;28;20362;-65
2023/01/09 03:55:50;;;;;;;5.40;3.08;;;;;;;;;;4784822;28;20040;-65
2023/01/09 03:58:17;;;;;;;7.07;3.58;;;;;;;;;;4849140;28;20051;-65
2023/01/09 04:00:44;;;;;;;9.30;3.67;;;;;;;;;;4840905;28;20036;-65
2023/01/09 04:03:11;;;;;;;7.95;3.88;;;;;;;;;;4826880;28;20040;-65
2023/01/09 04:05:37;;;;;;;10.63;4.40;;;;;;;;;;4854667;28;20122;-65
2023/01/09 04:08:04;;;;;;;6.47;3.83;;;;;;;;;;4817922;28;20397;-65
2023/01/09 04:10:30;;;;;;;7.95;4.50;;;;;;;;;;4821134;28;20057;-65
2023/01/09 04:12:56;;;;;;;12.07;4.55;;;;;;;;;;4798202;28;20040;-65
2023/01/09 04:15:22;;;;;;;9.80;5.50;;;;;;;;;;4856323;28;20048;-65
2023/01/09 04:17:48;;;;;;;7.07;4.35;;;;;;;;;;4857724;28;20040;-65
2023/01/09 04:20:14;;;;;;;9.27;5.95;;;;;;;;;;4860666;28;20087;-65
2023/01/09 04:22:40;;;;;;;13.70;5.15;;;;;;;;;;4864200;28;20097;-65
2023/01/09 04:25:06;;;;;;;8.20;5.53;;;;;;;;;;4857001;28;20037;-65
2023/01/09 04:27:33;;;;;;;8.02;5.55;;;;;;;;;;4854593;28;20796;-65
2023/01/09 04:29:59;;;;;;;11.43;5.95;;;;;;;;;;4855758;28;20053;-65
2023/01/09 04:32:26;;;;;;;11.88;6.85;;;;;;;;;;4862652;28;20861;-65
2023/01/09 04:34:53;;;;;;;11.32;6.15;;;;;;;;;;4827321;28;20048;-65
2023/01/09 04:37:19;;;;;;;12.98;7.28;;;;;;;;;;4723435;28;20939;-65
2023/01/09 04:39:45;;;;;;;16.08;7.00;;;;;;;;;;4800857;28;20067;-65
2023/01/09 04:42:11;;;;;;;12.10;6.93;;;;;;;;;;4785768;28;20045;-65
2023/01/09 04:44:37;;;;;;;14.15;7.40;;;;;;;;;;4814942;28;20033;-65
2023/01/09 04:47:04;;;;;;;14.18;8.10;;;;;;;;;;4788687;28;20094;-66
2023/01/09 04:49:30;;;;;;;12.80;8.18;;;;;;;;;;4834675;28;20960;-65
2023/01/09 04:51:56;;;;;;;14.18;8.15;;;;;;;;;;4842620;28;20040;-66
2023/01/09 04:54:22;;;;;;;14.85;8.38;;;;;;;;;;4799643;28;20620;-65
2023/01/09 04:56:48;;;;;;;17.55;9.35;;;;;;;;;;4730491;28;20059;-67
2023/01/09 04:59:14;;;;;;;13.95;8.63;;;;;;;;;;4709324;28;20036;-69
2023/01/09 05:01:40;;;;;;;14.93;8.48;;;;;;;;;;4725523;28;20949;-67
2023/01/09 05:04:07;;;;;;;18.10;9.13;;;;;;;;;;4780301;28;20051;-67
2023/01/09 05:06:33;;;;;;;16.02;9.68;;;;;;;;;;4813216;28;20056;-68
2023/01/09 05:09:02;;;;;;;19.60;10.60;;;;;;;;;;4850509;28;20052;-67
2023/01/09 05:11:28;;;;;;;17.85;10.70;;;;;;;;;;4852035;28;20068;-67
2023/01/09 05:13:54;;;;;;;16.48;10.32;;;;;;;;;;4765792;28;20044;-68
2023/01/09 05:16:21;;;;;;;16.48;10.15;;;;;;;;;;4828897;28;20635;-67
2023/01/09 05:18:47;;;;;;;18.60;11.52;;;;;;;;;;4806987;28;20047;-67
2023/01/09 05:21:13;;;;;;;17.90;11.30;;;;;;;;;;4832546;28;20074;-67
2023/01/09 05:23:39;;;;;;;20.10;11.25;;;;;;;;;;4852832;28;20123;-67
2023/01/09 05:26:05;;;;;;;18.80;11.77;;;;;;;;;;4839952;28;20129;-67
2023/01/09 05:28:32;;;;;;;14.82;10.63;;;;;;;;;;4851178;28;20144;-67
2023/01/09 05:30:58;;;;;;;17.20;10.88;;;;;;;;;;4858436;28;20063;-67
2023/01/09 05:33:24;;;;;;;17.83;11.40;;;;;;;;;;4850183;28;20079;-68
2023/01/09 05:35:50;;;;;;;16.65;10.73;;;;;;;;;;4839285;28;20040;-67
2023/01/09 05:38:16;;;;;;;21.77;11.95;;;;;;;;;;4852479;28;20047;-68
2023/01/09 05:40:42;;;;;;;18.65;11.25;;;;;;;;;;4869501;28;21063;-67
2023/01/09 05:43:08;;;;;;;15.88;10.57;;;;;;;;;;4852193;28;20233;-67
2023/01/09 05:45:35;;;;;;;18.65;10.98;;;;;;;;;;4837864;28;20290;-67
2023/01/09 05:48:01;;;;;;;19.38;11.20;;;;;;;;;;4858253;28;20808;-67
2023/01/09 05:50:27;;;;;;;15.38;10.77;;;;;;;;;;4844055;28;20752;-67
2023/01/09 05:52:53;;;;;;;17.48;11.45;;;;;;;;;;4845912;28;20123;-68
2023/01/09 05:55:20;;;;;;;21.45;11.10;;;;;;;;;;4867630;28;20250;-67
2023/01/09 05:57:46;;;;;;;13.85;9.65;;;;;;;;;;4854814;28;20274;-67
2023/01/09 06:00:12;;;;;;;17.27;10.88;;;;;;;;;;4843370;28;20041;-67
2023/01/09 06:02:38;;;;;;;19.33;10.30;;;;;;;;;;4847625;28;20140;-67
2023/01/09 06:05:04;;;;;;;16.13;9.70;;;;;;;;;;4839591;28;20259;-69
2023/01/09 06:07:33;;;;;;;18.73;9.82;;;;;;;;;;4832301;28;20072;-64
2023/01/09 06:09:59;;;;;;;19.50;9.95;;;;;;;;;;4830794;28;20067;-64
2023/01/09 06:12:25;;;;;;;18.20;9.82;;;;;;;;;;4849166;28;20040;-64
2023/01/09 06:14:51;;;;;;;18.83;9.90;;;;;;;;;;4849931;28;20131;-64
2023/01/09 06:17:17;;;;;;;16.20;10.15;;;;;;;;;;4855454;28;20040;-65
2023/01/09 06:19:43;;;;;;;18.55;10.55;;;;;;;;;;4849693;28;20059;-64
2023/01/09 06:22:10;;;;;;;15.45;9.10;;;;;;;;;;4841788;28;20932;-64
2023/01/09 06:24:36;;;;;;;15.77;10.05;;;;;;;;;;4835237;28;20040;-64
2023/01/09 06:27:02;;;;;;;17.17;9.13;;;;;;;;;;4870250;28;20040;-65
2023/01/09 06:29:28;;;;;;;17.35;10.35;;;;;;;;;;4855854;28;20119;-64
2023/01/09 06:31:54;;;;;;;16.63;8.88;;;;;;;;;;4832550;28;20131;-64
2023/01/09 06:34:20;;;;;;;17.75;10.20;;;;;;;;;;4849508;28;20149;-64
2023/01/09 06:36:46;;;;;;;17.13;9.45;;;;;;;;;;4831593;28;20037;-65
2023/01/09 06:39:13;;;;;;;19.23;10.60;;;;;;;;;;4853630;28;20178;-64
2023/01/09 06:41:39;;;;;;;17.10;10.23;;;;;;;;;;4851091;28;20046;-64
2023/01/09 06:44:05;;;;;;;19.85;11.25;;;;;;;;;;4863473;28;20804;-64
2023/01/09 06:46:31;;;;;;;19.35;10.73;;;;;;;;;;4848420;28;20880;-64
2023/01/09 06:48:57;;;;;;;21.67;11.68;;;;;;;;;;4834589;28;20129;-64
2023/01/09 06:51:23;;;;;;;16.10;10.95;;;;;;;;;;4845047;28;20052;-64
2023/01/09 06:53:49;;;;;;;19.05;10.88;;;;;;;;;;4797664;28;20445;-64
2023/01/09 06:56:15;;;;;;;20.35;11.98;;;;;;;;;;4836361;28;20045;-64
2023/01/09 06:58:41;;;;;;;17.73;11.25;;;;;;;;;;4837797;28;20097;-64
2023/01/09 07:01:08;;;;;;;21.02;11.07;;;;;;;;;;4865299;28;20163;-64
2023/01/09 07:03:34;;;;;;;17.50;11.02;;;;;;;;;;4845096;28;20655;-64
2023/01/09 07:06:00;;;;;;;20.08;11.15;;;;;;;;;;4835902;28;20890;-64
2023/01/09 07:08:26;;;;;;;17.40;10.77;;;;;;;;;;4847481;28;20730;-64
2023/01/09 07:10:52;;;;;;;24.95;11.75;;;;;;;;;;4823894;28;20036;-64
2023/01/09 07:13:18;;;;;;;22.63;10.98;;;;;;;;;;4845183;28;20799;-64
2023/01/09 07:15:44;;;;;;;17.27;10.85;;;;;;;;;;4839293;28;20048;-64
2023/01/09 07:18:10;;;;;;;17.60;11.77;;;;;;;;;;4821521;28;20146;-64
2023/01/09 07:20:37;;;;;;;17.88;11.18;;;;;;;;;;4811221;28;20240;-64
2023/01/09 07:23:03;;;;;;;20.67;11.77;;;;;;;;;;4829855;28;20267;-64
2023/01/09 07:25:30;;;;;;;17.75;10.05;;;;;;;;;;4850957;28;20048;-63
2023/01/09 07:27:56;;;;;;;20.75;10.73;;;;;;;;;;4842859;28;20040;-64
2023/01/09 07:30:22;;;;;;;19.67;10.48;;;;;;;;;;4862422;28;20036;-64
2023/01/09 07:32:48;;;;;;;16.05;10.30;;;;;;;;;;4849505;28;20245;-64
2023/01/09 07:35:14;;;;;;;13.30;8.13;;;;;;;;;;4832625;28;20086;-62
2023/01/09 07:37:40;;;;;;;15.93;8.73;;;;;;;;;;4814012;28;20410;-61
2023/01/09 07:40:06;;;;;;;16.58;8.13;;;;;;;;;;4782073;28;20905;-63
2023/01/09 07:42:32;;;;;;;17.90;7.25;;;;;;;;;;4801635;28;20121;-61
2023/01/09 07:44:58;;;;;;;13.43;6.18;;;;;;;;;;4832547;28;20795;-62
2023/01/09 07:47:25;;;;;;;10.23;6.20;;;;;;;;;;4787014;28;20052;-62
2023/01/09 07:49:51;;;;;;;14.32;5.75;;;;;;;;;;4819006;28;20789;-62
2023/01/09 07:52:20;;;;;;;10.25;6.90;;;;;;;;;;4791383;28;20867;-63
2023/01/09 07:54:49;;;;;;;12.15;7.05;;;;;;;;;;4827584;28;20871;-62
2023/01/09 07:57:18;;;;;;;15.95;6.28;;;;;;;;;;4837878;28;20221;-62
2023/01/09 07:59:44;;;;;;;9.50;6.38;;;;;;;;;;4789725;28;20789;-62
2023/01/09 08:02:11;;;;;;;9.95;5.68;;;;;;;;;;4781948;28;20046;-63
2023/01/09 08:04:37;;;;;;;12.27;6.78;;;;;;;;;;4778832;28;20952;-63
2023/01/09 08:07:03;;;;;;;13.50;6.60;;;;;;;;;;4765459;28;20086;-63
2023/01/09 08:09:29;;;;;;;13.02;6.45;;;;;;;;;;4773363;28;20539;-62
2023/01/09 08:11:56;;;;;;;14.57;6.25;;;;;;;;;;4762538;28;20055;-62
2023/01/09 08:14:25;;;;;;;12.35;5.68;;;;;;;;;;4803394;28;20125;-62
2023/01/09 08:16:51;;;;;;;12.00;5.82;;;;;;;;;;4757010;28;20958;-63
2023/01/09 08:19:17;;;;;;;8.88;5.68;;;;;;;;;;4743413;28;20105;-62
2023/01/09 08:21:43;;;;;;;12.40;6.22;;;;;;;;;;4791421;28;20055;-62
2023/01/09 08:24:09;;;;;;;12.82;6.32;;;;;;;;;;4729490;28;20843;-62
2023/01/09 08:26:35;;;;;;;10.90;6.40;;;;;;;;;;4713060;28;20414;-63
2023/01/09 08:29:01;;;;;;;13.48;6.28;;;;;;;;;;4752374;28;20047;-63
2023/01/09 08:31:27;;;;;;;11.95;7.70;;;;;;;;;;4800044;28;20060;-63
2023/01/09 08:33:54;;;;;;;13.75;6.38;;;;;;;;;;4707715;28;20945;-62
2023/01/09 08:36:20;;;;;;;13.90;7.20;;;;;;;;;;4748313;28;20860;-63
2023/01/09 08:38:46;;;;;;;12.13;6.18;;;;;;;;;;4753780;28;20141;-62
2023/01/09 08:47:06;;;;;;;15.35;7.10;;;;;;;;;;4777531;28;20053;-63
2023/01/09 08:49:37;;;;;;;10.43;5.70;;;;;;;;;;4739008;28;20558;-63
2023/01/09 08:52:09;;;;;;;14.32;6.43;;;;;;;;;;4759549;28;20565;-63
2023/01/09 08:54:38;;;;;;;11.82;6.45;;;;;;;;;;4758101;28;20048;-67
2023/01/09 08:57:05;;;;;;;12.68;6.03;;;;;;;;;;4750495;28;20048;-65
2023/01/09 08:59:31;;;;;;;14.48;7.22;;;;;;;;;;4732695;28;20646;-66
2023/01/09 09:01:57;;;;;;;10.48;6.45;;;;;;;;;;4785256;28;20040;-66
2023/01/09 09:04:23;;;;;;;11.63;6.35;;;;;;;;;;4769600;28;20048;-66
2023/01/09 09:06:49;;;;;;;15.18;5.90;;;;;;;;;;4737490;28;20629;-65
2023/01/09 09:09:15;;;;;;;14.90;6.15;;;;;;;;;;4761249;28;20117;-65
2023/01/09 09:11:41;;;;;;;10.40;5.18;;;;;;;;;;4785585;28;20044;-66
2023/01/09 09:16:53;;;;;;;10.05;5.57;;;;;;;;;;4727576;28;20060;-64
2023/01/09 09:19:19;;;;;;;11.80;5.53;;;;;;;;;;4748500;28;20235;-65
2023/01/09 09:21:45;;;;;;;14.07;5.97;;;;;;;;;;4727649;28;20049;-65
2023/01/09 09:24:11;;;;;;;13.25;5.45;;;;;;;;;;4734719;28;20075;-65
2023/01/09 09:26:37;;;;;;;12.55;5.18;;;;;;;;;;4742064;28;20036;-65
2023/01/09 09:29:03;;;;;;;10.52;5.43;;;;;;;;;;4697161;28;20044;-65
2023/01/09 09:31:30;;;;;;;10.45;4.88;;;;;;;;;;4728640;28;20585;-66
2023/01/09 09:33:56;;;;;;;9.40;5.03;;;;;;;;;;4710035;28;20043;-65
2023/01/09 09:36:22;;;;;;;8.23;5.05;;;;;;;;;;4774118;28;20040;-66
2023/01/09 09:38:48;;;;;;;11.73;5.10;;;;;;;;;;4686179;28;20139;-66
2023/01/09 09:44:45;;;;;;;8.98;4.40;;;;;;;;;;4672766;28;20041;-66
2023/01/09 09:47:31;;;;;;;9.40;4.57;;;;;;;;;;4789752;28;20749;-65
2023/01/09 09:49:57;;;;;;;9.00;5.25;;;;;;;;;;4822864;28;20044;-68
2023/01/09 09:52:30;;;;;;;17.48;6.13;;;;;;;;;;4787907;28;20037;-65
2023/01/09 09:55:01;;;;;;;10.63;4.95;;;;;;;;;;4804638;28;20139;-65
2023/01/09 09:57:31;;;;;;;10.30;4.70;;;;;;;;;;4713879;28;21111;-64
2023/01/09 09:59:57;;;;;;;10.35;4.25;;;;;;;;;;4724630;28;20044;-65
2023/01/09 10:02:46;;;;;;;11.55;4.43;;;;;;;;;;4765818;28;20041;-64
2023/01/09 10:05:16;;;;;;;11.75;5.07;;;;;;;;;;4752386;28;20040;-66
2023/01/09 10:07:46;;;;;;;12.18;5.88;;;;;;;;;;4861582;28;20586;-62
2023/01/09 10:10:16;;;;;;;8.75;4.07;;;;;;;;;;5047343;28;20131;-63
2023/01/09 10:12:45;;;;;;;8.35;4.72;;;;;;;;;;5066530;28;20173;-62
2023/01/09 10:15:25;;;;;;;8.52;4.43;;;6.80;99.90;;;;;;5065868;28;20380;-64
2023/01/09 10:17:50;;;;;;;7.47;4.20;;;;;;;;;;5050550;28;20437;-66
2023/01/09 10:20:32;;;;;;;10.73;4.50;;;;;;;;;;5048174;28;20036;-66
2023/01/09 10:23:01;;;;;;;7.35;4.32;;;;;;;;;;5050129;28;20613;-64
2023/01/09 10:25:30;;;;;;;10.07;4.70;;;;;;;;;;5065581;28;20046;-64
2023/01/09 10:28:09;;;;;;;10.95;4.80;;;;;;;;;;5048136;28;20094;-63
2023/01/09 10:30:47;;;;;;;10.80;4.57;;;;;;;;;;5048777;28;20062;-63
2023/01/09 10:33:20;;;;;;;12.80;4.63;;;;;;;;;;5047939;28;20088;-66
2023/01/09 10:35:54;;;;;;;11.05;4.65;;;;;;;;;;5064631;28;20055;-66
2023/01/09 10:38:23;;;;;;;12.25;5.43;;;;;;;;;;5065346;28;20114;-65
2023/01/09 10:41:02;;;;;;;9.80;4.97;;;;;;;;;;5065612;28;20498;-65
2023/01/09 10:43:41;;;;;;;11.27;5.00;;;;;;;;;;5047283;28;20398;-66
2023/01/09 10:46:11;;;;;;;9.68;4.57;;;;;;;;;;5048454;28;20417;-66
2023/01/09 10:48:40;;;;;;;14.40;5.68;;;;;;;;;;5047570;28;20047;-67
2023/01/09 10:51:15;;;;;;;11.05;4.63;;;;;;;;;;5047096;28;20052;-65
2023/01/09 10:53:41;;;;;;;;;;;;;;;;;;5050466;28;20048;-67
2023/01/09 10:56:24;;;;;;;15.35;6.20;;;;;;;;;;5065502;28;19935;-66
2023/01/09 10:58:51;;;;;;;10.45;4.53;;;;;;;;;;5065708;28;20120;-66
2023/01/09 11:01:28;;;;;;;8.50;5.13;;;;;;;;;;5065730;28;20119;-66
2023/01/09 11:03:57;;;;;;;13.23;6.22;;;;;;;;;;5045940;28;20044;-66
2023/01/09 11:06:25;;;;;;;14.30;6.40;;;;;;;;;;5066038;28;20393;-66
2023/01/09 11:08:55;;;;;;;13.35;5.68;;;7.00;99.90;;;;;;5066184;28;20044;-66
2023/01/09 11:11:32;;;;;;;10.40;6.20;;;;;;;;;;5064865;28;20927;-66
2023/01/09 11:14:07;;;;;;;12.27;5.93;;;;;;;;;;5065067;28;20048;-66
2023/01/09 11:16:33;;;;;;;10.27;5.88;;;;;;;;;;5063891;28;20045;-66
2023/01/09 11:19:00;;;;;;;11.75;6.70;;;;;;;;;;5049668;28;20044;-66
2023/01/09 11:21:40;;;;;;;12.02;6.95;;;;;;;;;;5046699;28;20561;-66
2023/01/09 11:24:22;;;;;;;17.90;7.88;;;;;;;;;;5020820;28;20045;-67
2023/01/09 11:26:49;;;;;;;13.73;7.07;;;;;;;;;;5054169;28;20218;-68
2023/01/09 11:29:20;;;;;;;10.35;6.80;;;;;;;;;;5047902;28;20109;-67
2023/01/09 11:32:00;;;;;;;15.15;7.05;;;;;;;;;;5065918;28;20067;-68
2023/01/09 11:34:37;;;;;;;13.75;7.72;;;;;;;;;;5048341;28;20127;-68
2023/01/09 11:37:07;;;;;;;14.95;6.97;;;;;;;;;;5065553;28;20129;-68
2023/01/09 11:39:36;;;;;;;16.15;7.20;;;;;;;;;;5047486;28;20118;-67
2023/01/09 11:42:04;;;;;;;11.23;7.70;;;;;;;;;;5065272;28;20493;-67
2023/01/09 11:44:31;;;;;;;14.60;6.93;;;;;;;;;;5044762;28;20044;-68
2023/01/09 11:46:57;;;;;;;15.43;7.47;;;;;;;;;;5046965;28;20040;-68
2023/01/09 11:49:25;;;;;;;19.67;7.70;;;;;;;;;;5047729;28;20769;-66
2023/01/09 11:52:18;;;;;;;13.20;6.88;;;7.70;99.90;;;;;;5065960;28;20122;-67
2023/01/09 11:54:47;;;;;;;12.18;7.40;;;;;;;;;;5065685;28;20036;-67
2023/01/09 11:57:13;;;;;;;11.98;7.15;;;;;;;;;;5047623;28;20121;-67
2023/01/09 11:59:39;;;;;;;13.15;6.93;;;;;;;;;;5045943;28;20455;-65
2023/01/09 12:02:23;;;;;;;12.30;7.22;;;;;;;;;;5066175;28;20081;-63
2023/01/09 12:04:58;;;;;;;11.60;6.63;;;;;;;;;;5062186;28;20048;-66
2023/01/09 12:07:24;;;;;;;;;;;;;;;;;;5048895;28;20564;-67
2023/01/09 12:10:13;;;;;;;16.20;6.97;;;;;;;;;;5048231;28;19924;-65
2023/01/09 12:12:57;;;;;;;10.63;7.72;;;;;;;;;;5066394;28;20040;-66
2023/01/09 12:15:33;;;;;;;13.25;8.13;;;;;;;;;;5066319;28;20043;-68
2023/01/09 12:18:02;;;;;;;12.25;7.95;;;;;;;;;;5048232;28;20052;-67
2023/01/09 12:20:28;;;;;;;15.07;8.20;;;;;;;;;;5048067;28;20040;-64
2023/01/09 12:23:13;;;;;;;17.02;7.93;;;;;;;;;;5066081;28;20138;-64
2023/01/09 12:25:49;;;;;;;12.98;7.95;;;;;;;;;;5066037;28;20115;-64
2023/01/09 12:28:15;;;;;;;18.08;11.15;;;;;;;;;;5048133;28;20052;-65
2023/01/09 12:31:10;;;;;;;15.88;8.80;;;8.00;99.90;;;;;;5048131;28;20128;-68
2023/01/09 12:33:39;;;;;;;14.45;8.38;;;;;;;;;;5049395;28;20498;-66
2023/01/09 12:36:10;;;;;;;17.77;9.20;;;;;;;;;;5069941;28;20052;-67
2023/01/09 12:38:54;;;;;;;13.52;8.73;;;;;;;;;;5051926;28;20119;-67
2023/01/09 12:41:38;;;;;;;16.30;8.57;;;;;;;;;;5052018;28;20045;-66
2023/01/09 12:44:14;;;;;;;17.23;9.05;;;;;;;;;;5069599;28;20088;-66
2023/01/09 12:47:06;;;;;;;19.52;8.85;;;;;;;;;;5069555;28;20079;-67
2023/01/09 12:49:33;;;;;;;16.17;9.25;;;8.20;99.90;;;;;;5065026;28;20053;-68
2023/01/09 12:52:05;;;;;;;14.10;8.55;;;;;;;;;;5051012;28;20052;-67
2023/01/09 12:54:40;;;;;;;12.70;7.75;;;;;;;;;;5051338;28;20036;-66
2023/01/09 12:57:06;;;;;;;;;;;;;;;;;;5069965;28;20148;-67
2023/01/09 12:59:36;;;;;;;14.68;8.43;;;;;;;;;;5051517;28;19963;-65
2023/01/09 13:02:15;;;;;;;12.88;8.35;;;;;;;;;;5051441;28;20055;-66
2023/01/09 13:04:45;;;;;;;14.50;8.23;;;;;;;;;;5051482;28;20037;-66
2023/01/09 13:07:31;;;;;;;16.20;8.15;;;;;;;;;;5035041;28;20604;-66
2023/01/09 13:10:14;;;;;;;14.82;8.20;;;;;;;;;;5051148;28;20044;-66
2023/01/09 13:12:43;;;;;;;19.65;7.10;;;;;;;;;;5069255;28;20506;-66
2023/01/09 13:15:17;;;;;;;12.25;7.68;;;;;;;;;;5068774;28;20103;-67
2023/01/09 13:17:48;;;;;;;16.15;7.53;;;;;;;;;;5068680;28;20128;-65
2023/01/09 13:20:18;;;;;;;16.60;6.63;;;;;;;;;;5051384;28;20040;-66
2023/01/09 13:22:49;;;;;;;10.52;6.88;;;;;;;;;;5050900;28;20075;-65
2023/01/09 13:25:33;;;;;;;17.70;6.78;;;;;;;;;;5051014;28;20055;-69
2023/01/09 13:28:01;;;;;;;13.52;6.15;;;;;;;;;;5050341;28;20044;-66
2023/01/09 13:31:01;;;;;;;16.02;6.68;;;9.60;99.90;;;;;;5050297;28;20109;-69
2023/01/09 13:33:28;;;;;;;13.50;5.97;;;;;;;;;;5068406;28;20041;-69
2023/01/09 13:35:58;;;;;;;15.57;5.68;;;;;;;;;;5068326;28;20076;-66
2023/01/09 13:38:25;;;;;;;11.20;5.63;;;;;;;;;;5050129;28;20048;-66
2023/01/09 13:44:01;;;;;;;13.00;5.68;;;;;;;;;;5049610;28;20048;-67
2023/01/09 13:46:42;;;;;;;15.85;5.03;;;;;;;;;;5067643;28;20044;-67
2023/01/09 13:49:28;;;;;;;13.50;4.68;;;;;;;;;;5068171;28;20562;-68
2023/01/09 13:51:59;;;;;;;14.85;4.22;;;;;;;;;;5050519;28;20182;-68
2023/01/09 13:54:43;;;;;;;8.63;3.85;;;;;;;;;;5054837;28;20083;-67
2023/01/09 13:57:18;;;;;;;13.93;3.45;;;;;;;;;;5067968;28;20048;-66
2023/01/09 13:59:46;;;;;;;12.75;3.30;;;;;;;;;;5050102;28;20051;-66
2023/01/09 14:02:31;;;;;;;14.68;4.45;;;;;;;;;;5049679;28;20051;-66
2023/01/09 14:04:57;;;;;;;12.20;4.07;;;;;;;;;;5067660;28;20048;-67
2023/01/09 14:07:23;;;;;;;10.93;3.67;;;;;;;;;;5067415;28;20705;-66
2023/01/09 14:09:52;;;;;;;11.93;3.72;;;;;;;;;;5048980;28;20049;-66
2023/01/09 14:12:19;;;;;;;16.52;3.63;;;;;;;;;;5049213;28;20102;-66
2023/01/09 14:14:45;;;;;;;15.30;4.03;;;8.50;99.90;;;;;;5055887;28;20048;-67
2023/01/09 14:17:17;;;;;;;13.35;3.58;;;8.70;99.90;;;;;;5067788;28;20044;-64
2023/01/09 14:19:43;;;;;;;11.68;3.05;;;;;;;;;;5049537;28;20044;-66
2023/01/09 14:22:23;;;;;;;15.32;4.78;;;;;;;;;;5049395;28;20072;-68
2023/01/09 14:24:51;;;;;;;15.18;3.08;;;;;;;;;;5048385;28;20127;-67
2023/01/09 14:27:36;;;;;;;14.82;3.33;;;;;;;;;;5067375;28;20068;-68
2023/01/09 14:30:21;;;;;;;12.80;3.07;;;;;;;;;;5049070;28;20059;-69
2023/01/09 14:32:55;;;;;;;7.00;2.90;;;;;;;;;;5067293;28;20136;-69
2023/01/09 14:35:41;;;;;;;12.68;3.13;;;;;;;;;;5049119;28;20136;-67
2023/01/09 14:38:21;;;;;;;15.05;4.32;;;;;;;;;;4999309;28;20059;-69
2023/01/09 14:40:50;;;;;;;18.33;2.90;;;;;;;;;;5067030;28;20040;-67
2023/01/09 14:43:21;;;;;;;18.75;3.35;;;;;;;;;;5048969;28;20071;-67
2023/01/09 14:45:47;;;;;;;15.43;3.30;;;;;;;;;;5048912;28;20071;-68
2023/01/09 14:48:13;;;;;;;13.40;3.55;;;;;;;;;;5067106;28;20059;-71
2023/01/09 14:50:53;;;;;;;20.92;5.10;;;;;;;;;;5066880;28;20043;-68
2023/01/09 14:53:21;;;;;;;11.77;3.03;;;;;;;;;;5067153;28;20139;-69
2023/01/09 14:55:52;;;;;;;11.73;3.20;;;;;;;;;;5066373;28;20040;-69
2023/01/09 14:58:25;;;;;;;16.35;3.28;;;;;;;;;;5066948;28;20518;-69
2023/01/09 15:00:54;;;;;;;11.80;3.78;;;;;;;;;;5048851;28;20048;-68
2023/01/09 15:03:21;;;;;;;13.15;3.70;;;;;;;;;;5048859;28;20048;-68